Terminal Aerodrome Forecast
Issued by NWS Wakefield, VA

Home | Current Version | Previous Version | Text Only | Print | Product List | Glossary On
Versions: 1 2 3 4 5 6 7 8 9 10 11 12 13 14 15
000
FTUS41 KAKQ 011029 AAA
TAFSBY
TAF AMD
KSBY 011029Z 0110/0206 VRB02KT 2SM BR BKN001
     FM011230 26003KT P6SM SCT010
     FM011400 28005KT P6SM SCT050
     FM012300 VRB03KT P6SM SKC=

USA.gov is the U.S. government's official web portal to all federal, state and local government web resources and services.